Flight Track Log - Related Links

Times and Time Zones

All times are in EDT time to prevent confusion due to time zone crossing. See the SWA1021 flight status page for this flight to view local times or setup timezone preferences in your user account.

Time Position Orientation Groundspeed Altitude Reporting Facility
EDT Latitude Longitude Course Direction KTS MPH feet Rate Location/Type
Sun 08:15:27 PM 32.7667 -96.7667 140° Southeast 240 276 4,500  Level Dallas / Fort Worth TRACON
Sun 08:16:27 PM 32.7667 -96.7000 90° East 249 287 7,400 2,619 Climbing Dallas / Fort Worth TRACON
Sun 08:18:44 PM 32.9381 -96.7450 348° North 298 343 13,100 2,467 Climbing Fort Worth Center
Sun 08:19:44 PM 33.0156 -96.7842 337° Northwest 298 343 15,500 2,350 Climbing Fort Worth Center
Sun 08:20:44 PM 33.0867 -96.8406 326° Northwest 303 349 17,800 2,050 Climbing Fort Worth Center
Sun 08:21:44 PM 33.1539 -96.8900 328° Northwest 314 361 19,600 1,950 Climbing Fort Worth Center
Sun 08:22:44 PM 33.2497 -96.8942 358° North 299 344 21,700 1,800 Climbing Fort Worth Center
Sun 08:23:44 PM 33.3436 -96.8614 16° North 314 361 23,200 1,350 Climbing Fort Worth Center
Sun 08:24:44 PM 33.4436 -96.8258 17° North 340 391 24,400 1,150 Climbing Fort Worth Center
Sun 08:25:44 PM 33.5414 -96.7681 26° Northeast 378 435 25,500 1,250 Climbing Fort Worth Center
Sun 08:26:44 PM 33.6456 -96.6997 29° Northeast 395 455 26,900 1,400 Climbing Fort Worth Center
Sun 08:27:44 PM 33.7472 -96.6342 28° Northeast 405 466 28,300 1,250 Climbing Fort Worth Center
Sun 08:28:44 PM 33.8553 -96.5656 28° Northeast 415 478 29,400 1,350 Climbing Fort Worth Center
Sun 08:29:44 PM 33.9614 -96.4944 29° Northeast 421 484 31,000 1,650 Climbing Fort Worth Center
Sun 08:30:44 PM 34.0694 -96.4256 28° Northeast 426 490 32,700 1,400 Climbing Fort Worth Center
Sun 08:31:44 PM 34.1542 -96.3544 35° Northeast 421 484 33,800 1,109 Climbing Fort Worth Center
Sun 08:32:43 PM 34.2558 -96.2728 34° Northeast 421 484 34,900 700 Climbing Fort Worth Center
Sun 08:33:44 PM 34.3572 -96.1883 35° Northeast 432 497 35,200 843 Climbing Fort Worth Center
Sun 08:34:44 PM 34.4567 -96.1064 34° Northeast 432 497 36,600 900 Climbing Fort Worth Center
Sun 08:35:44 PM 34.5581 -96.0217 35° Northeast 432 497 37,000 200 Climbing Fort Worth Center
Sun 08:36:44 PM 34.6572 -95.9392 34° Northeast 437 503 37,000  Level Fort Worth Center
Sun 08:37:44 PM 34.7583 -95.8542 35° Northeast 432 497 37,000  Level Fort Worth Center
Sun 08:38:44 PM 34.8594 -95.7714 34° Northeast 432 497 37,000  Level Fort Worth Center
Sun 08:39:44 PM 34.9686 -95.6703 37° Northeast 438 504 37,000  Level Fort Worth Center
Sun 08:40:44 PM 35.0675 -95.5744 38° Northeast 443 510 37,000  Level Fort Worth Center
Sun 08:41:44 PM 35.1683 -95.4808 37° Northeast 448 516 37,000  Level Fort Worth Center
Sun 08:43:37 PM 35.3469 -95.3131 37° Northeast 460 529 37,000  Level Memphis Center
Sun 08:44:37 PM 35.4489 -95.2172 37° Northeast 460 529 37,000  Level Memphis Center
Sun 08:45:37 PM 35.5506 -95.1211 38° Northeast 455 524 37,000  Level Memphis Center
Sun 08:46:37 PM 35.6500 -95.0247 38° Northeast 455 524 37,000  Level Memphis Center
Sun 08:47:37 PM 35.7497 -94.9253 39° Northeast 455 524 37,000  Level Memphis Center
Sun 08:48:37 PM 35.8511 -94.8286 38° Northeast 455 524 37,000  Level Memphis Center
Sun 08:49:50 PM 35.9706 -94.7122 38° Northeast 462 532 37,000  Level Kansas City Center
Sun 08:50:51 PM 36.0728 -94.6122 38° Northeast 467 537 37,000  Level Kansas City Center
Sun 08:51:37 PM 36.1597 -94.5292 38° Northeast 461 531 37,000  Level Memphis Center
Sun 08:52:53 PM 36.2986 -94.3914 39° Northeast 470 541 37,000  Level Kansas City Center
Sun 08:53:54 PM 36.4008 -94.2922 38° Northeast 470 541 37,000  Level Kansas City Center
Sun 08:54:55 PM 36.5031 -94.1917 38° Northeast 469 540 37,000  Level Kansas City Center
Sun 08:55:57 PM 36.6042 -94.0906 39° Northeast 467 537 37,000  Level Kansas City Center
Sun 08:56:58 PM 36.7058 -93.9889 39° Northeast 469 540 37,000  Level Kansas City Center
Sun 08:57:59 PM 36.8092 -93.8875 38° Northeast 471 542 37,000  Level Kansas City Center
Sun 08:59:00 PM 36.9094 -93.7847 39° Northeast 468 539 37,000  Level Kansas City Center
Sun 09:00:01 PM 37.0247 -93.6681 39° Northeast 468 539 37,000  Level Kansas City Center
Sun 09:01:02 PM 37.1275 -93.5642 39° Northeast 473 544 37,000  Level Kansas City Center
Sun 09:02:03 PM 37.2297 -93.4606 39° Northeast 471 542 37,000  Level Kansas City Center
Sun 09:03:04 PM 37.3333 -93.3603 38° Northeast 469 540 37,000  Level Kansas City Center
Sun 09:04:05 PM 37.4314 -93.2514 41° Northeast 468 539 37,000  Level Kansas City Center
Sun 09:05:06 PM 37.5261 -93.1381 43° Northeast 469 540 37,000 -148 Level Kansas City Center
Sun 09:06:07 PM 37.6225 -93.0275 42° Northeast 467 537 36,700 -639 Descending Kansas City Center
Sun 09:07:08 PM 37.7183 -92.9133 43° Northeast 469 540 35,700 -934 Descending Kansas City Center
Sun 09:08:09 PM 37.8144 -92.8003 43° Northeast 469 540 34,800 -934 Descending Kansas City Center
Sun 09:09:10 PM 37.9136 -92.6797 44° Northeast 476 548 33,800 -927 Descending Kansas City Center
Sun 09:10:12 PM 37.9900 -92.5358 56° Northeast 481 554 32,900 -878 Descending Kansas City Center
Sun 09:11:13 PM 38.0669 -92.3925 56° Northeast 490 564 32,000 -992 Descending Kansas City Center
Sun 09:12:13 PM 38.1417 -92.2553 55° Northeast 480 552 30,900 -1,091 Descending Kansas City Center
Sun 09:13:14 PM 38.2178 -92.1100 56° Northeast 468 539 29,800 -1,033 Descending Kansas City Center
Sun 09:14:15 PM 38.2886 -91.9756 56° Northeast 459 528 28,800 -934 Descending Kansas City Center
Sun 09:15:16 PM 38.3589 -91.8422 56° Northeast 455 524 27,900 -1,131 Descending Kansas City Center
Sun 09:16:17 PM 38.4275 -91.7108 56° Northeast 448 516 26,500 -1,820 Descending Kansas City Center
Sun 09:17:18 PM 38.4947 -91.5839 56° Northeast 436 502 24,200 -2,213 Descending Kansas City Center
Sun 09:18:19 PM 38.5578 -91.4639 56° Northeast 415 478 22,000 -2,262 Descending Kansas City Center
Sun 09:19:20 PM 38.6247 -91.3350 56° Northeast 396 456 19,600 -2,262 Descending Kansas City Center
Sun 09:20:21 PM 38.6819 -91.2244 56° Northeast 379 436 17,400 -2,066 Descending Kansas City Center
Sun 09:21:22 PM 38.6958 -91.0942 82° East 378 435 15,400 -1,967 Descending Kansas City Center
Sun 09:22:23 PM 38.6997 -90.9656 88° East 367 422 13,400 -1,967 Descending Kansas City Center
Sun 09:23:24 PM 38.7028 -90.8386 88° East 361 415 11,400 -1,623 Descending Kansas City Center
Sun 09:24:25 PM 38.7058 -90.7167 88° East 350 403 10,100 -1,131 Descending Kansas City Center
Sun 09:25:26 PM 38.7108 -90.6089 87° East 314 361 9,100 -1,279 Descending Kansas City Center
Sun 09:26:27 PM 38.7039 -90.5050 95° East 306 352 7,500 -1,180 Descending Kansas City Center
Sun 09:27:28 PM 38.6542 -90.4042 122° Southeast 293 337 6,700 -934 Descending Kansas City Center
Sun 09:28:29 PM 38.6164 -90.3300 123° Southeast 269 310 5,600 -1,131 Descending Kansas City Center
Sun 09:29:30 PM 38.6178 -90.2581 89° East 250 288 4,400 -1,082 Descending Kansas City Center
Sun 09:30:31 PM 38.6722 -90.2344 19° North 223 257 3,400 -1,180 Descending Kansas City Center
Sun 09:31:32 PM 38.7017 -90.2653 321° Northwest 183 211 2,000 -1,033 Descending Kansas City Center
Sun 09:32:33 PM 38.7197 -90.3106 297° West 160 184 1,300 -738 Descending Kansas City Center
Sun 09:33:34 PM 38.7408 -90.3519 303° West 149 171 500 -787 Descending Kansas City Center

Login

Don't have an account? Register now (free) for customized features, flight alerts, and more!